Detall de PIREP

Printer-friendly versionPDF version

[2013/07/31 18:02:00]
Flight IATA:CT1004
Pilot Number:042
Company ICAO:CAT
Aircraft Type:MD11/E
PAX:300
Aircraft Registration:PAX
Departing Airport: LEBL
Destination Airport: LSZH
Alternate Airport:LSGG
Online: VATSIM
Route:DALIN UN870 MAXIR UN853 MOLUS UN871 BERSU
Flight Level:F320
No Slew and time accel
No pause
Crash detect
Detect pilot in Cockpit between each 30 and 45 minutes
18:02 Zero fuel Weight: 377796 Lbs, Fuel Weight: 85584 Lbs
18:02 VATSIM:LEBL 310830Z 11003KT 040V170 CAVOK 29/18 Q1020 NOSIG
18:02 VATSIM:LSZH 310820Z 22006KT 170V260 9999 FEW032 22/14 Q1023 NOSIG
18:02 VOICE CATALONIAN/SUMMER CHARTER
18:07 Parking Brakes off
18:16 Take-off
18:16 Take off Weight: 461741 Lbs
18:16 Wind: 142º @ 005 Knots Heading: 066º
18:16 POS N41º 17´ 23´´ E002º 05´ 45´´
18:16 Gear Up: 174 Knots
18:16 Flaps:5 at 174 Knots
18:17 Flaps:4 at 172 Knots
18:17 Flaps:3 at 173 Knots
18:17 Flaps:2 at 174 Knots
18:17 Flaps:1 at 174 Knots
18:18 Flaps:0 at 216 Knots
18:29 TOC
18:29 Fuel Weight: 75423 Lb
18:31 Wind:075º@004 Knots Heading: 066º Ground Speed: 463 Knots Altitude 32188 ft
18:46 Wind:347º@014 Knots Heading: 041º Ground Speed: 458 Knots Altitude 32145 ft
19:01 Wind:047º@011 Knots Heading: 019º Ground Speed: 457 Knots Altitude 33202 ft
19:16 Wind:261º@006 Knots Heading: 023º Ground Speed: 467 Knots Altitude 33293 ft
19:17 TOD
19:17 Fuel Weight: 63016 Lb
19:28 Flaps:1 at 248 Knots
19:29 Flaps:2 at 248 Knots
19:29 Flaps:3 at 243 Knots
19:30 Flaps:4 at 230 Knots
19:30 Flaps:3 at 229 Knots
19:30 Flaps:4 at 231 Knots
19:30 Flaps:5 at 223 Knots
19:30 Flaps:6 at 213 Knots
19:30 Flaps:5 at 211 Knots
19:30 Flaps:6 at 211 Knots
19:30 Gear Down: 205 Knots
19:30 Flaps:7 at 197 Knots
19:30 Flaps:6 at 195 Knots
19:30 Flaps:7 at 192Knots
19:31 Wind:252º@015 Knots Heading: 153º Ground Speed: 194 Knots Altitude 7536 ft
19:31 Flaps:8 at 169 Knots
19:31 Flaps:7 at 175 Knots
19:32 Gear Up: 186 Knots
19:32 Flaps:6 at 185 Knots
19:32 Flaps:7 at 185 Knots
19:32 Flaps:6 at 171 Knots
19:33 Flaps:5 at 173 Knots
19:33 Flaps:4 at 176 Knots
19:33 Flaps:3 at 180 Knots
19:37 Flaps:4 at 212 Knots
19:37 Flaps:3 at 212 Knots
19:37 Flaps:4 at 212 Knots
19:37 Flaps:5 at 211 Knots
19:37 Flaps:6 at 211 Knots
19:38 Gear Down: 181 Knots
19:39 Flaps:7 at 177 Knots
19:39 Flaps:8 at 177 Knots
19:39 Flaps:7 at 177 Knots
19:39 Flaps:8 at 174 Knots
19:39 Flaps:7 at 175 Knots
19:39 Flaps:8 at 174 Knots
19:41 TouchDown:Rate -145 ft/min Speed: 162 Knots
19:41 VATSIM:LSZH 311020Z 25008KT 210V290 9999 FEW036 24/14 Q1023 NOSIG
19:41 Land
19:41 Wind:308º@006 Knots
19:41 Heading: 275º
19:41 Flight Duration: 01:25
19:41 Landing Weight: 435146 Lbs
19:41 POS N47º 27´ 29´´ E008º 32´ 49´´
19:46 Parking brakes on
19:46 Block to Block Duration: 01:39
19:46 Final Fuel: 56691 Lbls
19:46 Spent Fuel: 28893 Lbls
19:46 Flight Length: 565 NM
19:46 TOD Land Length: 118 NM

Exportar CSV

Powered by Drupal - Modified by Danger4k